Time;durP1;ratioP1;P1;durP2;ratioP2;P2;SDS_P1;SDS_P2;PMS_P1;PMS_P2;Temp;Humidity;BMP_temperature;BMP_pressure;BME280_temperature;BME280_humidity;BME280_pressure;Samples;Min_cycle;Max_cycle;Signal;HPM_P1;HPM_P2
2022/01/20 00:04:11;;;;;;;;;;;;;;;;;;6120954;23;19909;-81
2022/01/20 00:28:25;;;;;;;;;;;;;;;;;;6119457;23;20305;-82
2022/01/20 00:33:51;;;;;;;;;;;;;;;;;;6073980;23;22319;-83
2022/01/20 00:39:02;;;;;;;;;;;;;;;;;;6120314;23;19908;-82
2022/01/20 00:41:28;;;;;;;;;;;;;;;;;;6119488;23;19909;-82
2022/01/20 00:43:54;;;;;;;;;;;;;;;;;;6094126;23;19913;-82
2022/01/20 00:46:20;;;;;;;;;;;;;;;;;;6119607;23;19909;-82
2022/01/20 00:48:46;;;;;;;;;;;;;;;;;;6095061;23;19909;-82
2022/01/20 00:51:13;;;;;;;;;;;;;;;;;;6120660;23;19948;-82
2022/01/20 00:53:43;;;;;;;;;;;;;;;;;;6093149;23;19936;-82
2022/01/20 00:56:10;;;;;;;;;;;;;;;;;;6120132;23;20171;-83
2022/01/20 00:58:36;;;;;;;;;;;;;;;;;;6118730;23;19909;-83
2022/01/20 01:01:02;;;;;;;;;;;;;;;;;;6120055;23;20322;-82
2022/01/20 01:03:28;;;;;;;;;;;;;;;;;;6093268;23;19916;-82
2022/01/20 01:06:28;;;;;;;;;;;;;;;;;;6094375;23;20412;-83
2022/01/20 01:08:55;;;;;;;;;;;;;;;;;;6119091;23;20646;-82
2022/01/20 01:11:22;;;;;;;;;;;;;;;;;;6119390;23;20234;-83
2022/01/20 01:13:50;;;;;;;;;;;;;;;;;;6120271;23;19909;-82
2022/01/20 01:16:19;;;;;;;;;;;;;;;;;;6120113;23;19924;-83
2022/01/20 01:21:43;;;;;;;;;;;;;;;;;;6119007;23;19909;-83
2022/01/20 01:24:09;;;;;;;;;;;;;;;;;;6120477;23;19924;-83
2022/01/20 01:26:35;;;;;;;;;;;;;;;;;;6118977;23;20285;-83
2022/01/20 01:29:07;;;;;;;;;;;;;;;;;;6120288;23;20380;-81
2022/01/20 01:31:37;;;;;;;;;;;;;;;;;;6119144;23;19940;-82
2022/01/20 01:34:12;;;;;;;;;;;;;;;;;;6120191;23;19975;-81
2022/01/20 01:39:31;;;;;;;;;;;;;;;;;;6112172;23;20014;-82
2022/01/20 01:41:58;;;;;;;;;;;;;;;;;;6120231;23;19909;-82
2022/01/20 01:44:28;;;;;;;;;;;;;;;;;;6118988;23;19909;-82
2022/01/20 01:46:54;;;;;;;;;;;;;;;;;;6120047;23;19913;-82
2022/01/20 01:49:21;;;;;;;;;;;;;;;;;;6120012;23;19909;-83
2022/01/20 01:51:47;;;;;;;;;;;;;;;;;;6120617;23;19987;-82
2022/01/20 01:54:13;;;;;;;;;;;;;;;;;;6069700;23;20325;-82
2022/01/20 01:56:40;;;;;;;;;;;;;;;;;;6118801;23;19909;-82
2022/01/20 01:59:06;;;;;;;;;;;;;;;;;;6119977;23;19909;-82
2022/01/20 02:01:35;;;;;;;;;;;;;;;;;;6118885;23;19976;-82
2022/01/20 02:04:12;;;;;;;;;;;;;;;;;;6119831;23;19971;-81
2022/01/20 02:20:12;;;;;;;;;;;;;;;;;;6119121;23;19913;-82
2022/01/20 02:22:38;;;;;;;;;;;;;;;;;;6118696;23;19972;-83
2022/01/20 02:25:05;;;;;;;;;;;;;;;;;;6119435;23;19909;-83
2022/01/20 02:27:31;;;;;;;;;;;;;;;;;;6118611;23;20297;-83
2022/01/20 02:29:57;;;;;;;;;;;;;;;;;;6119209;23;19928;-82
2022/01/20 02:32:23;;;;;;;;;;;;;;;;;;6118176;23;20582;-82
2022/01/20 02:34:49;;;;;;;;;;;;;;;;;;6102553;23;19936;-81
2022/01/20 02:37:16;;;;;;;;;;;;;;;;;;6119799;23;19920;-81
2022/01/20 02:40:04;;;;;;;;;;;;;;;;;;6118730;23;20000;-81
2022/01/20 02:45:15;;;;;;;;;;;;;;;;;;6119363;23;19913;-82
2022/01/20 02:47:41;;;;;;;;;;;;;;;;;;6118815;23;19909;-81
2022/01/20 02:50:08;;;;;;;;;;;;;;;;;;6119060;23;19913;-82
2022/01/20 02:52:34;;;;;;;;;;;;;;;;;;6118007;23;20006;-82
2022/01/20 02:55:00;;;;;;;;;;;;;;;;;;6119600;23;19971;-81
2022/01/20 02:57:26;;;;;;;;;;;;;;;;;;6118416;23;19913;-82
2022/01/20 02:59:53;;;;;;;;;;;;;;;;;;6119407;23;19971;-82
2022/01/20 03:02:19;;;;;;;;;;;;;;;;;;6118523;23;19909;-82
2022/01/20 03:04:45;;;;;;;;;;;;;;;;;;6119611;23;20514;-82
2022/01/20 03:07:11;;;;;;;;;;;;;;;;;;6117821;23;19916;-82
2022/01/20 03:09:38;;;;;;;;;;;;;;;;;;6117778;23;19913;-82
2022/01/20 03:12:04;;;;;;;;;;;;;;;;;;6119958;23;20514;-82
2022/01/20 03:14:30;;;;;;;;;;;;;;;;;;6118214;23;19917;-82
2022/01/20 03:16:57;;;;;;;;;;;;;;;;;;6118177;23;19916;-82
2022/01/20 03:19:23;;;;;;;;;;;;;;;;;;6118971;23;19916;-82
2022/01/20 03:21:49;;;;;;;;;;;;;;;;;;6119933;23;19920;-82
2022/01/20 03:24:16;;;;;;;;;;;;;;;;;;6119408;23;19936;-82
2022/01/20 03:26:42;;;;;;;;;;;;;;;;;;6118268;23;19932;-82
2022/01/20 03:29:10;;;;;;;;;;;;;;;;;;6119449;23;19916;-82
2022/01/20 03:31:36;;;;;;;;;;;;;;;;;;6117847;23;19924;-82
2022/01/20 03:34:03;;;;;;;;;;;;;;;;;;6118642;23;19921;-82
2022/01/20 03:36:29;;;;;;;;;;;;;;;;;;6118427;23;19924;-82
2022/01/20 03:38:55;;;;;;;;;;;;;;;;;;6120193;23;19988;-81
2022/01/20 03:41:22;;;;;;;;;;;;;;;;;;6119619;23;19909;-81
2022/01/20 03:43:48;;;;;;;;;;;;;;;;;;6120688;23;19991;-81
2022/01/20 03:46:15;;;;;;;;;;;;;;;;;;6120609;23;19909;-82
2022/01/20 03:48:50;;;;;;;;;;;;;;;;;;6119382;23;20221;-81
2022/01/20 03:51:20;;;;;;;;;;;;;;;;;;6120496;23;20318;-82
2022/01/20 03:53:46;;;;;;;;;;;;;;;;;;6119045;23;19932;-82
2022/01/20 03:56:13;;;;;;;;;;;;;;;;;;6120648;23;19909;-82
2022/01/20 03:58:39;;;;;;;;;;;;;;;;;;6093823;23;19917;-82
2022/01/20 04:01:05;;;;;;;;;;;;;;;;;;6094662;23;20296;-81
2022/01/20 04:03:31;;;;;;;;;;;;;;;;;;6119560;23;20342;-81
2022/01/20 04:05:57;;;;;;;;;;;;;;;;;;6120736;23;19916;-81
2022/01/20 04:08:24;;;;;;;;;;;;;;;;;;6093693;23;19957;-81
2022/01/20 04:10:50;;;;;;;;;;;;;;;;;;6120834;23;19964;-81
2022/01/20 04:13:18;;;;;;;;;;;;;;;;;;6120605;23;19917;-82
2022/01/20 04:15:44;;;;;;;;;;;;;;;;;;6119192;23;20341;-82
2022/01/20 04:18:19;;;;;;;;;;;;;;;;;;6120261;23;20436;-82
2022/01/20 04:20:47;;;;;;;;;;;;;;;;;;6093251;23;19936;-82
2022/01/20 04:23:19;;;;;;;;;;;;;;;;;;6093305;23;19985;-82
2022/01/20 04:25:46;;;;;;;;;;;;;;;;;;6094085;23;19909;-82
2022/01/20 04:28:12;;;;;;;;;;;;;;;;;;6094452;23;19956;-82
2022/01/20 04:30:38;;;;;;;;;;;;;;;;;;6092448;23;19913;-83
2022/01/20 04:33:04;;;;;;;;;;;;;;;;;;6094115;23;19913;-82
2022/01/20 04:35:31;;;;;;;;;;;;;;;;;;6116630;23;19925;-81
2022/01/20 04:37:58;;;;;;;;;;;;;;;;;;6093297;23;19916;-83
2022/01/20 04:40:24;;;;;;;;;;;;;;;;;;6119009;23;19908;-83
2022/01/20 04:42:52;;;;;;;;;;;;;;;;;;6092472;23;19913;-84
2022/01/20 04:45:29;;;;;;;;;;;;;;;;;;6118196;23;19924;-84
2022/01/20 04:48:14;;;;;;;;;;;;;;;;;;6116842;23;19913;-84
2022/01/20 04:58:55;;;;;;;;;;;;;;;;;;6117198;23;20256;-83
2022/01/20 05:01:21;;;;;;;;;;;;;;;;;;6117827;23;19909;-82
2022/01/20 05:03:47;;;;;;;;;;;;;;;;;;6118940;23;19963;-83
2022/01/20 05:06:14;;;;;;;;;;;;;;;;;;6118988;23;19909;-86
2022/01/20 05:08:40;;;;;;;;;;;;;;;;;;6091159;23;19909;-85
2022/01/20 05:11:06;;;;;;;;;;;;;;;;;;6118879;23;19964;-83
2022/01/20 05:13:35;;;;;;;;;;;;;;;;;;6117741;23;19945;-84
2022/01/20 05:16:01;;;;;;;;;;;;;;;;;;6119050;23;19913;-84
2022/01/20 05:18:27;;;;;;;;;;;;;;;;;;6117286;23;19936;-83
2022/01/20 05:20:53;;;;;;;;;;;;;;;;;;6093206;23;19912;-83
2022/01/20 05:23:19;;;;;;;;;;;;;;;;;;6116655;23;19917;-83
2022/01/20 05:25:46;;;;;;;;;;;;;;;;;;6117891;23;20261;-83
2022/01/20 05:28:12;;;;;;;;;;;;;;;;;;6119257;23;19913;-86
2022/01/20 05:30:41;;;;;;;;;;;;;;;;;;6118328;23;20254;-82
2022/01/20 05:33:07;;;;;;;;;;;;;;;;;;6092950;23;19909;-81
2022/01/20 05:35:34;;;;;;;;;;;;;;;;;;6118104;23;19934;-81
2022/01/20 05:38:00;;;;;;;;;;;;;;;;;;6119540;23;20675;-81
2022/01/20 05:40:26;;;;;;;;;;;;;;;;;;6092645;23;19909;-81
2022/01/20 05:42:52;;;;;;;;;;;;;;;;;;6094028;23;19908;-81
2022/01/20 05:45:18;;;;;;;;;;;;;;;;;;6093663;23;19909;-82
2022/01/20 05:47:47;;;;;;;;;;;;;;;;;;6118422;23;21366;-82
2022/01/20 05:50:13;;;;;;;;;;;;;;;;;;6093746;23;19909;-81
2022/01/20 05:52:42;;;;;;;;;;;;;;;;;;6118050;23;19925;-81
2022/01/20 05:55:08;;;;;;;;;;;;;;;;;;6093727;23;19909;-81
2022/01/20 05:57:36;;;;;;;;;;;;;;;;;;6117198;23;20310;-81
2022/01/20 06:00:02;;;;;;;;;;;;;;;;;;6093299;23;19909;-81
2022/01/20 06:03:35;;;;;;;;;;;;;;;;;;6117885;23;19971;-81
2022/01/20 06:05:14;;;;;;;;;;;;;;;;;;6118240;23;19912;-81
2022/01/20 06:07:40;;;;;;;;;;;;;;;;;;6117680;23;19909;-82
2022/01/20 06:10:07;;;;;;;;;;;;;;;;;;6117371;23;19920;-81
2022/01/20 06:12:33;;;;;;;;;;;;;;;;;;6112757;23;19936;-81
2022/01/20 06:14:59;;;;;;;;;;;;;;;;;;6091871;23;19964;-80
2022/01/20 06:17:28;;;;;;;;;;;;;;;;;;6103004;23;19909;-80
2022/01/20 06:19:54;;;;;;;;;;;;;;;;;;6117464;23;19913;-80
2022/01/20 06:22:20;;;;;;;;;;;;;;;;;;6116683;23;19913;-81
2022/01/20 06:24:46;;;;;;;;;;;;;;;;;;6091106;23;19909;-81
2022/01/20 06:27:13;;;;;;;;;;;;;;;;;;6117645;23;19909;-81
2022/01/20 06:29:39;;;;;;;;;;;;;;;;;;6091574;23;19909;-79
2022/01/20 06:32:05;;;;;;;;;;;;;;;;;;6119198;23;19921;-81
2022/01/20 06:34:31;;;;;;;;;;;;;;;;;;6117822;23;19979;-80
2022/01/20 06:36:57;;;;;;;;;;;;;;;;;;6119296;23;19920;-80
2022/01/20 06:39:24;;;;;;;;;;;;;;;;;;6117683;23;19913;-81
2022/01/20 06:41:51;;;;;;;;;;;;;;;;;;6092892;23;19913;-81
2022/01/20 06:44:18;;;;;;;;;;;;;;;;;;6119485;23;19912;-81
2022/01/20 06:46:45;;;;;;;;;;;;;;;;;;6117760;23;19919;-81
2022/01/20 06:49:11;;;;;;;;;;;;;;;;;;6120094;23;19909;-81
2022/01/20 06:51:37;;;;;;;;;;;;;;;;;;6092079;23;19948;-81
2022/01/20 06:54:04;;;;;;;;;;;;;;;;;;6118473;23;19909;-80
2022/01/20 06:56:31;;;;;;;;;;;;;;;;;;6077468;23;20001;-81
2022/01/20 06:58:57;;;;;;;;;;;;;;;;;;6119016;23;20345;-81
2022/01/20 07:01:23;;;;;;;;;;;;;;;;;;6117422;23;19909;-80
2022/01/20 07:03:49;;;;;;;;;;;;;;;;;;6117655;23;19913;-81
2022/01/20 07:06:15;;;;;;;;;;;;;;;;;;6118508;23;19909;-80
2022/01/20 07:08:42;;;;;;;;;;;;;;;;;;6090809;23;19956;-80
2022/01/20 07:11:08;;;;;;;;;;;;;;;;;;6092225;23;19912;-81
2022/01/20 07:13:35;;;;;;;;;;;;;;;;;;6116309;23;19913;-80
2022/01/20 07:16:01;;;;;;;;;;;;;;;;;;6118000;23;19933;-81
2022/01/20 07:18:27;;;;;;;;;;;;;;;;;;6117671;23;19916;-81
2022/01/20 07:20:54;;;;;;;;;;;;;;;;;;6118708;23;19913;-81
2022/01/20 07:23:20;;;;;;;;;;;;;;;;;;6117446;23;19964;-81
2022/01/20 07:25:46;;;;;;;;;;;;;;;;;;6118816;23;19920;-81
2022/01/20 07:28:13;;;;;;;;;;;;;;;;;;6119452;23;19916;-81
2022/01/20 07:30:39;;;;;;;;;;;;;;;;;;6092092;23;19909;-81
2022/01/20 07:33:05;;;;;;;;;;;;;;;;;;6118268;23;20241;-81
2022/01/20 07:35:31;;;;;;;;;;;;;;;;;;6117089;23;19928;-81
2022/01/20 07:37:57;;;;;;;;;;;;;;;;;;6092535;23;19924;-82
2022/01/20 07:40:26;;;;;;;;;;;;;;;;;;6088833;23;20421;-82
2022/01/20 07:42:52;;;;;;;;;;;;;;;;;;6108020;23;19913;-84
2022/01/20 07:45:20;;;;;;;;;;;;;;;;;;6091749;23;19909;-83
2022/01/20 07:47:47;;;;;;;;;;;;;;;;;;6104268;23;19920;-83
2022/01/20 07:50:13;;;;;;;;;;;;;;;;;;6118217;23;19909;-84
2022/01/20 07:52:39;;;;;;;;;;;;;;;;;;6091375;23;19925;-84
2022/01/20 07:55:05;;;;;;;;;;;;;;;;;;6093477;23;19909;-84
2022/01/20 07:57:31;;;;;;;;;;;;;;;;;;6091210;23;19909;-84
2022/01/20 07:59:58;;;;;;;;;;;;;;;;;;6093148;23;20246;-84
2022/01/20 08:02:24;;;;;;;;;;;;;;;;;;6117452;23;19909;-84
2022/01/20 08:04:50;;;;;;;;;;;;;;;;;;6119371;23;20330;-84
2022/01/20 08:07:17;;;;;;;;;;;;;;;;;;6119064;23;19909;-84
2022/01/20 08:09:45;;;;;;;;;;;;;;;;;;6091872;23;19913;-84
2022/01/20 08:12:11;;;;;;;;;;;;;;;;;;6091580;23;19952;-84
2022/01/20 08:14:37;;;;;;;;;;;;;;;;;;6118089;23;19964;-84
2022/01/20 08:17:03;;;;;;;;;;;;;;;;;;6119433;23;19913;-84
2022/01/20 08:19:29;;;;;;;;;;;;;;;;;;6093232;23;19909;-84
2022/01/20 08:25:24;;;;;;;;;;;;;;;;;;5916288;24;19920;-83
2022/01/20 08:28:08;;;;;;;;;;;;;;;;;;5861906;24;19989;-84
2022/01/20 08:33:25;;;;;;;;;;;;;;;;;;5901353;24;19919;-84
2022/01/20 08:35:55;;;;;;;;;;;;;;;;;;6080413;23;19921;-84
2022/01/20 08:38:21;;;;;;;;;;;;;;;;;;6104988;23;20002;-84
2022/01/20 08:40:47;;;;;;;;;;;;;;;;;;6106837;23;20249;-84
2022/01/20 08:43:13;;;;;;;;;;;;;;;;;;6107062;23;20289;-83
2022/01/20 08:45:40;;;;;;;;;;;;;;;;;;6119573;23;21369;-85
2022/01/20 08:48:08;;;;;;;;;;;;;;;;;;6118298;23;20249;-83
2022/01/20 08:50:34;;;;;;;;;;;;;;;;;;6115705;23;19995;-82
2022/01/20 08:53:01;;;;;;;;;;;;;;;;;;6119739;23;19979;-83
2022/01/20 08:55:27;;;;;;;;;;;;;;;;;;6119232;23;19964;-82
2022/01/20 08:57:53;;;;;;;;;;;;;;;;;;6120201;23;19909;-83
2022/01/20 09:00:20;;;;;;;;;;;;;;;;;;6120715;23;19916;-83
2022/01/20 09:02:46;;;;;;;;;;;;;;;;;;6118449;23;22356;-82
2022/01/20 09:05:13;;;;;;;;;;;;;;;;;;6103527;23;19909;-83
2022/01/20 09:07:39;;;;;;;;;;;;;;;;;;6114504;23;19909;-83
2022/01/20 09:10:07;;;;;;;;;;;;;;;;;;6119053;23;19962;-82
2022/01/20 09:17:44;;;;;;;;;;;;;;;;;;6103237;23;19913;-83
2022/01/20 09:20:13;;;;;;;;;;;;;;;;;;6119924;23;19909;-83
2022/01/20 09:22:42;;;;;;;;;;;;;;;;;;6093607;23;20313;-83
2022/01/20 09:25:11;;;;;;;;;;;;;;;;;;6104372;23;19909;-83
2022/01/20 09:27:38;;;;;;;;;;;;;;;;;;6089717;23;19910;-83
2022/01/20 09:30:04;;;;;;;;;;;;;;;;;;6109970;23;19909;-83
2022/01/20 09:32:32;;;;;;;;;;;;;;;;;;6118700;23;19931;-83
2022/01/20 09:34:58;;;;;;;;;;;;;;;;;;6118656;23;19944;-83
2022/01/20 09:37:24;;;;;;;;;;;;;;;;;;6117626;23;19909;-82
2022/01/20 09:39:51;;;;;;;;;;;;;;;;;;6119536;23;19913;-83
2022/01/20 09:42:18;;;;;;;;;;;;;;;;;;6119893;23;19937;-84
2022/01/20 09:44:47;;;;;;;;;;;;;;;;;;6103658;23;19924;-83
2022/01/20 09:47:13;;;;;;;;;;;;;;;;;;6119673;23;19909;-83
2022/01/20 09:49:39;;;;;;;;;;;;;;;;;;6117000;23;19916;-83
2022/01/20 09:52:06;;;;;;;;;;;;;;;;;;6117705;23;20318;-83
2022/01/20 09:54:32;;;;;;;;;;;;;;;;;;6103611;23;19913;-83
2022/01/20 09:56:58;;;;;;;;;;;;;;;;;;6108537;23;19909;-83
2022/01/20 09:59:24;;;;;;;;;;;;;;;;;;6116549;23;19979;-82
2022/01/20 10:01:50;;;;;;;;;;;;;;;;;;6119791;23;19913;-83
2022/01/20 10:04:16;;;;;;;;;;;;;;;;;;6118023;23;20153;-83
2022/01/20 10:06:45;;;;;;;;;;;;;;;;;;6119476;23;19909;-83
2022/01/20 10:09:11;;;;;;;;;;;;;;;;;;6086978;23;19917;-83
2022/01/20 10:11:38;;;;;;;;;;;;;;;;;;6118261;23;19913;-84
2022/01/20 10:14:08;;;;;;;;;;;;;;;;;;6119865;23;19928;-84
2022/01/20 10:16:37;;;;;;;;;;;;;;;;;;6117284;23;19975;-83
2022/01/20 10:19:05;;;;;;;;;;;;;;;;;;6119508;23;19916;-83
2022/01/20 10:21:31;;;;;;;;;;;;;;;;;;6118474;23;19920;-82
2022/01/20 10:23:57;;;;;;;;;;;;;;;;;;6119820;23;19909;-83
2022/01/20 10:26:23;;;;;;;;;;;;;;;;;;6118551;23;19909;-82
2022/01/20 10:28:50;;;;;;;;;;;;;;;;;;6120087;23;19913;-82
2022/01/20 10:31:16;;;;;;;;;;;;;;;;;;6118128;23;19916;-83
2022/01/20 10:33:42;;;;;;;;;;;;;;;;;;6091763;23;20396;-83
2022/01/20 10:36:12;;;;;;;;;;;;;;;;;;6093529;23;20000;-83
2022/01/20 10:38:38;;;;;;;;;;;;;;;;;;6092293;23;19979;-83
2022/01/20 10:41:04;;;;;;;;;;;;;;;;;;6119553;23;19916;-83
2022/01/20 10:43:32;;;;;;;;;;;;;;;;;;6117972;23;19913;-90
2022/01/20 10:45:58;;;;;;;;;;;;;;;;;;6119022;23;19913;-89
2022/01/20 10:48:24;;;;;;;;;;;;;;;;;;6118461;23;19916;-85
2022/01/20 10:50:51;;;;;;;;;;;;;;;;;;6060342;23;20602;-84
2022/01/20 10:53:17;;;;;;;;;;;;;;;;;;6112613;23;19917;-84
2022/01/20 10:55:43;;;;;;;;;;;;;;;;;;6118227;23;19909;-84
2022/01/20 10:58:09;;;;;;;;;;;;;;;;;;6119555;23;19913;-83
2022/01/20 11:00:35;;;;;;;;;;;;;;;;;;6091805;23;19916;-84
2022/01/20 11:03:01;;;;;;;;;;;;;;;;;;6117310;23;19920;-84
2022/01/20 11:05:29;;;;;;;;;;;;;;;;;;6091198;23;20385;-84
2022/01/20 11:07:55;;;;;;;;;;;;;;;;;;6117748;23;19917;-84
2022/01/20 11:10:24;;;;;;;;;;;;;;;;;;6118010;23;19913;-85
2022/01/20 11:12:50;;;;;;;;;;;;;;;;;;6118098;23;19948;-84
2022/01/20 11:15:16;;;;;;;;;;;;;;;;;;6117608;23;19913;-86
2022/01/20 11:17:42;;;;;;;;;;;;;;;;;;6117835;23;19916;-86
2022/01/20 11:20:09;;;;;;;;;;;;;;;;;;6092708;23;19913;-85
2022/01/20 11:22:35;;;;;;;;;;;;;;;;;;6118296;23;19925;-86
2022/01/20 11:25:02;;;;;;;;;;;;;;;;;;6119198;23;20364;-85
2022/01/20 11:27:28;;;;;;;;;;;;;;;;;;6068236;23;20329;-86
2022/01/20 11:29:56;;;;;;;;;;;;;;;;;;6118932;23;19920;-86
2022/01/20 11:32:22;;;;;;;;;;;;;;;;;;6116558;23;19952;-85
2022/01/20 11:34:48;;;;;;;;;;;;;;;;;;6076962;23;19945;-85
2022/01/20 11:37:15;;;;;;;;;;;;;;;;;;6118948;23;20321;-85
2022/01/20 11:39:41;;;;;;;;;;;;;;;;;;6116976;23;20230;-85
2022/01/20 11:42:07;;;;;;;;;;;;;;;;;;6114946;23;19912;-85
2022/01/20 11:44:33;;;;;;;;;;;;;;;;;;6116966;23;19913;-85
2022/01/20 11:47:00;;;;;;;;;;;;;;;;;;6118473;23;19909;-85
2022/01/20 11:49:26;;;;;;;;;;;;;;;;;;6115654;23;19913;-84
2022/01/20 11:51:52;;;;;;;;;;;;;;;;;;6117434;23;20398;-85
2022/01/20 11:54:18;;;;;;;;;;;;;;;;;;6117440;23;19913;-85
2022/01/20 11:56:44;;;;;;;;;;;;;;;;;;6116069;23;19917;-84
2022/01/20 11:59:11;;;;;;;;;;;;;;;;;;6119855;23;19936;-85
2022/01/20 12:01:37;;;;;;;;;;;;;;;;;;6118336;23;19920;-85
2022/01/20 12:04:03;;;;;;;;;;;;;;;;;;6094888;23;19917;-86
2022/01/20 12:06:29;;;;;;;;;;;;;;;;;;6119855;23;19920;-86
2022/01/20 12:08:56;;;;;;;;;;;;;;;;;;6120637;23;19909;-86
2022/01/20 12:11:22;;;;;;;;;;;;;;;;;;6119068;23;19920;-86
2022/01/20 12:13:48;;;;;;;;;;;;;;;;;;6117887;23;19917;-85
2022/01/20 12:16:14;;;;;;;;;;;;;;;;;;6120512;23;19909;-86
2022/01/20 12:33:33;;;;;;;;;;;;;;;;;;5086505;27;19950;-92
2022/01/20 12:36:04;;;;;;;;;;;;;;;;;;5085574;28;19959;-92
2022/01/20 12:38:30;;;;;;;;;;;;;;;;;;5084476;28;19952;-92
2022/01/20 12:40:56;;;;;;;;;;;;;;;;;;5083343;28;19974;-93
2022/01/20 12:43:22;;;;;;;;;;;;;;;;;;5075159;28;20423;-91
2022/01/20 12:45:55;;;;;;;;;;;;;;;;;;5083581;28;19916;-91
2022/01/20 12:48:21;;;;;;;;;;;;;;;;;;5078521;28;19952;-90
2022/01/20 12:50:47;;;;;;;;;;;;;;;;;;5084529;28;21727;-92
2022/01/20 12:53:13;;;;;;;;;;;;;;;;;;5075710;28;19967;-92
2022/01/20 12:55:39;;;;;;;;;;;;;;;;;;5087936;28;19955;-91
2022/01/20 12:58:06;;;;;;;;;;;;;;;;;;5088645;28;20626;-91
2022/01/20 13:17:22;;;;;;;;;;;;;;;;;;5091607;27;19932;-80
2022/01/20 13:19:49;;;;;;;;;;;;;;;;;;5084172;28;19982;-80
2022/01/20 13:22:17;;;;;;;;;;;;;;;;;;5099462;28;19954;-80
2022/01/20 13:24:43;;;;;;;;;;;;;;;;;;5099351;27;20081;-80
2022/01/20 13:27:10;;;;;;;;;;;;;;;;;;5099360;27;19960;-80
2022/01/20 13:29:36;;;;;;;;;;;;;;;;;;5077619;28;20405;-81
2022/01/20 13:32:02;;;;;;;;;;;;;;;;;;5083019;28;19924;-81
2022/01/20 13:34:28;;;;;;;;;;;;;;;;;;5088373;27;20418;-81
2022/01/20 13:36:55;;;;;;;;;;;;;;;;;;5094083;28;19947;-81
2022/01/20 13:39:21;;;;;;;;;;;;;;;;;;5100473;27;19951;-81
2022/01/20 13:41:47;;;;;;;;;;;;;;;;;;5090979;28;22495;-80
2022/01/20 13:46:58;;;;;;;;;;;;;;;;;;5098251;27;20381;-80
2022/01/20 13:49:25;;;;;;;;;;;;;;;;;;5095167;27;19952;-82
2022/01/20 13:51:51;;;;;;;;;;;;;;;;;;5100994;27;19960;-82
2022/01/20 13:54:17;;;;;;;;;;;;;;;;;;5099728;27;20750;-82
2022/01/20 13:56:43;;;;;;;;;;;;;;;;;;5099106;28;20028;-85
2022/01/20 13:59:09;;;;;;;;;;;;;;;;;;5099667;28;19952;-85
2022/01/20 14:01:35;;;;;;;;;;;;;;;;;;5080205;28;19947;-85
2022/01/20 14:04:02;;;;;;;;;;;;;;;;;;5099844;27;20638;-84
2022/01/20 14:06:28;;;;;;;;;;;;;;;;;;5097644;28;19967;-82
2022/01/20 14:08:54;;;;;;;;;;;;;;;;;;5074433;28;20738;-81
2022/01/20 14:11:20;;;;;;;;;;;;;;;;;;5096887;28;19952;-83
2022/01/20 14:13:46;;;;;;;;;;;;;;;;;;5097110;28;19951;-82
2022/01/20 14:16:13;;;;;;;;;;;;;;;;;;5098363;28;20041;-83
2022/01/20 14:18:44;;;;;;;;;;;;;;;;;;5085571;28;19959;-81
2022/01/20 14:21:10;;;;;;;;;;;;;;;;;;5087001;28;20444;-81
2022/01/20 14:23:37;;;;;;;;;;;;;;;;;;5085130;28;19999;-83
2022/01/20 14:26:05;;;;;;;;;;;;;;;;;;5085793;28;20002;-81
2022/01/20 14:28:31;;;;;;;;;;;;;;;;;;5068670;28;19963;-83
2022/01/20 14:30:57;;;;;;;;;;;;;;;;;;5065242;28;19963;-82
2022/01/20 14:33:24;;;;;;;;;;;;;;;;;;5085004;28;19927;-83
2022/01/20 14:35:50;;;;;;;;;;;;;;;;;;5085468;28;19951;-83
2022/01/20 14:38:17;;;;;;;;;;;;;;;;;;5086865;28;19963;-82
2022/01/20 14:40:43;;;;;;;;;;;;;;;;;;5084747;28;19948;-82
2022/01/20 14:43:09;;;;;;;;;;;;;;;;;;5068133;28;19951;-86
2022/01/20 14:45:35;;;;;;;;;;;;;;;;;;5084536;28;20115;-86
2022/01/20 14:48:01;;;;;;;;;;;;;;;;;;5067522;28;19947;-85
2022/01/20 14:50:28;;;;;;;;;;;;;;;;;;5072411;28;20209;-82
2022/01/20 14:52:54;;;;;;;;;;;;;;;;;;5087927;28;19942;-84
2022/01/20 14:55:21;;;;;;;;;;;;;;;;;;5086750;28;20009;-84
2022/01/20 14:57:47;;;;;;;;;;;;;;;;;;5049231;28;19928;-84
2022/01/20 15:00:15;;;;;;;;;;;;;;;;;;5086443;28;19963;-83
2022/01/20 15:02:45;;;;;;;;;;;;;;;;;;5081171;28;19916;-83
2022/01/20 15:05:11;;;;;;;;;;;;;;;;;;5087038;28;19955;-82
2022/01/20 15:07:38;;;;;;;;;;;;;;;;;;5079345;28;19951;-82
2022/01/20 15:10:04;;;;;;;;;;;;;;;;;;5079232;28;19971;-82
2022/01/20 15:12:31;;;;;;;;;;;;;;;;;;5057294;28;19912;-83
2022/01/20 15:14:57;;;;;;;;;;;;;;;;;;5084541;28;20471;-82
2022/01/20 15:17:23;;;;;;;;;;;;;;;;;;5083423;28;19976;-82
2022/01/20 15:19:49;;;;;;;;;;;;;;;;;;5075713;28;19947;-83
2022/01/20 15:22:15;;;;;;;;;;;;;;;;;;5078548;28;19955;-84
2022/01/20 15:24:42;;;;;;;;;;;;;;;;;;5084472;28;19951;-84
2022/01/20 15:27:08;;;;;;;;;;;;;;;;;;5059687;28;19963;-84
2022/01/20 15:29:34;;;;;;;;;;;;;;;;;;5085038;28;19954;-83
2022/01/20 15:32:00;;;;;;;;;;;;;;;;;;5082323;28;19955;-84
2022/01/20 15:34:26;;;;;;;;;;;;;;;;;;5084047;28;19969;-84
2022/01/20 15:36:54;;;;;;;;;;;;;;;;;;5080186;28;19958;-84
2022/01/20 15:39:21;;;;;;;;;;;;;;;;;;5067497;28;19948;-83
2022/01/20 15:41:47;;;;;;;;;;;;;;;;;;5083872;28;20362;-84
2022/01/20 15:44:13;;;;;;;;;;;;;;;;;;5068455;28;19967;-84
2022/01/20 15:46:39;;;;;;;;;;;;;;;;;;5067599;28;20031;-83
2022/01/20 15:49:06;;;;;;;;;;;;;;;;;;5082858;28;19955;-83
2022/01/20 15:51:32;;;;;;;;;;;;;;;;;;5077351;28;19966;-83
2022/01/20 15:53:58;;;;;;;;;;;;;;;;;;5085701;28;19956;-82
2022/01/20 15:56:24;;;;;;;;;;;;;;;;;;5075384;28;19931;-81
2022/01/20 15:58:50;;;;;;;;;;;;;;;;;;5069656;28;19956;-84
2022/01/20 16:01:17;;;;;;;;;;;;;;;;;;5086067;28;19967;-83
2022/01/20 16:03:43;;;;;;;;;;;;;;;;;;5081007;28;19950;-83
2022/01/20 16:06:09;;;;;;;;;;;;;;;;;;5080422;28;20451;-83
2022/01/20 16:08:35;;;;;;;;;;;;;;;;;;5081594;28;19970;-84
2022/01/20 16:11:01;;;;;;;;;;;;;;;;;;5066134;28;19966;-84
2022/01/20 16:13:28;;;;;;;;;;;;;;;;;;5080169;28;19966;-83
2022/01/20 16:15:54;;;;;;;;;;;;;;;;;;5085265;28;19955;-83
2022/01/20 16:18:20;;;;;;;;;;;;;;;;;;5080702;28;20348;-83
2022/01/20 16:20:47;;;;;;;;;;;;;;;;;;5073325;28;19920;-84
2022/01/20 16:23:13;;;;;;;;;;;;;;;;;;5085419;28;19959;-84
2022/01/20 16:25:39;;;;;;;;;;;;;;;;;;5066862;28;20015;-84
2022/01/20 16:28:05;;;;;;;;;;;;;;;;;;5048362;28;20432;-84
2022/01/20 16:30:31;;;;;;;;;;;;;;;;;;5084625;28;20031;-84
2022/01/20 16:32:58;;;;;;;;;;;;;;;;;;5066148;28;20386;-83
2022/01/20 16:35:24;;;;;;;;;;;;;;;;;;5054587;28;20013;-83
2022/01/20 16:37:50;;;;;;;;;;;;;;;;;;5084522;28;20352;-84
2022/01/20 16:40:19;;;;;;;;;;;;;;;;;;5066319;28;20384;-83
2022/01/20 16:42:45;;;;;;;;;;;;;;;;;;5084945;28;19955;-82
2022/01/20 16:45:11;;;;;;;;;;;;;;;;;;5064717;28;20022;-82
2022/01/20 16:47:39;;;;;;;;;;;;;;;;;;5078829;28;19955;-80
2022/01/20 16:50:05;;;;;;;;;;;;;;;;;;5084762;28;19956;-80
2022/01/20 16:52:31;;;;;;;;;;;;;;;;;;5079882;28;19942;-80
2022/01/20 16:54:57;;;;;;;;;;;;;;;;;;5085067;28;19955;-81
2022/01/20 16:57:24;;;;;;;;;;;;;;;;;;5080719;28;19964;-79
2022/01/20 16:59:52;;;;;;;;;;;;;;;;;;5065904;28;19948;-79
2022/01/20 17:02:26;;;;;;;;;;;;;;;;;;5064018;28;19948;-78
2022/01/20 17:04:53;;;;;;;;;;;;;;;;;;5079304;28;21615;-80
2022/01/20 17:07:19;;;;;;;;;;;;;;;;;;5080453;28;19963;-80
2022/01/20 17:09:45;;;;;;;;;;;;;;;;;;5081730;28;19944;-80
2022/01/20 17:12:12;;;;;;;;;;;;;;;;;;5081686;28;20396;-80
2022/01/20 17:14:38;;;;;;;;;;;;;;;;;;5082024;28;19951;-80
2022/01/20 17:17:04;;;;;;;;;;;;;;;;;;5081716;28;19964;-79
2022/01/20 17:19:30;;;;;;;;;;;;;;;;;;5078885;28;19956;-79
2022/01/20 17:21:57;;;;;;;;;;;;;;;;;;5083738;28;20410;-80
2022/01/20 17:24:23;;;;;;;;;;;;;;;;;;5079713;28;20006;-81
2022/01/20 17:26:49;;;;;;;;;;;;;;;;;;5080079;28;19959;-80
2022/01/20 17:29:15;;;;;;;;;;;;;;;;;;5083038;28;19955;-80
2022/01/20 17:31:41;;;;;;;;;;;;;;;;;;5081963;28;19970;-80
2022/01/20 17:34:08;;;;;;;;;;;;;;;;;;5062518;28;20000;-80
2022/01/20 17:36:34;;;;;;;;;;;;;;;;;;5063329;28;19920;-80
2022/01/20 17:39:00;;;;;;;;;;;;;;;;;;5084204;28;19963;-80
2022/01/20 17:41:26;;;;;;;;;;;;;;;;;;5083718;28;20408;-79
2022/01/20 17:43:52;;;;;;;;;;;;;;;;;;5083287;28;19959;-79
2022/01/20 17:46:18;;;;;;;;;;;;;;;;;;5082406;28;19967;-79
2022/01/20 17:48:46;;;;;;;;;;;;;;;;;;5062629;28;19955;-79
2022/01/20 17:51:12;;;;;;;;;;;;;;;;;;5082813;28;20579;-79
2022/01/20 17:53:38;;;;;;;;;;;;;;;;;;5085971;28;20572;-79
2022/01/20 17:56:04;;;;;;;;;;;;;;;;;;5086711;28;19997;-79
2022/01/20 17:58:31;;;;;;;;;;;;;;;;;;5065619;28;20344;-80
2022/01/20 18:00:57;;;;;;;;;;;;;;;;;;5085067;28;19956;-79
2022/01/20 18:03:25;;;;;;;;;;;;;;;;;;5085980;28;19967;-78
2022/01/20 18:05:52;;;;;;;;;;;;;;;;;;5084160;28;20462;-79
2022/01/20 18:08:18;;;;;;;;;;;;;;;;;;5086285;28;19955;-79
2022/01/20 18:10:44;;;;;;;;;;;;;;;;;;5085540;28;19959;-80
2022/01/20 18:13:11;;;;;;;;;;;;;;;;;;5087965;28;20513;-80
2022/01/20 18:15:37;;;;;;;;;;;;;;;;;;5081224;28;19966;-82
2022/01/20 18:18:03;;;;;;;;;;;;;;;;;;5085494;28;19964;-80
2022/01/20 18:20:29;;;;;;;;;;;;;;;;;;5074214;28;19956;-82
2022/01/20 18:22:56;;;;;;;;;;;;;;;;;;5078877;28;20402;-85
2022/01/20 18:25:22;;;;;;;;;;;;;;;;;;5088533;28;19959;-82
2022/01/20 18:27:48;;;;;;;;;;;;;;;;;;5088076;28;19963;-81
2022/01/20 18:30:14;;;;;;;;;;;;;;;;;;5087917;28;20394;-84